sensor_id;sensor_type;location;lat;lon;timestamp;P1;durP1;ratioP1;P2;durP2;ratioP2
36415;SDS011;22447;44.530;18.620;2023-11-21T00:01:02;195.20;;;105.22;;
36415;SDS011;22447;44.530;18.620;2023-11-21T00:03:30;207.13;;;109.97;;
36415;SDS011;22447;44.530;18.620;2023-11-21T00:05:56;224.75;;;118.30;;
36415;SDS011;22447;44.530;18.620;2023-11-21T00:08:22;222.40;;;117.75;;
36415;SDS011;22447;44.530;18.620;2023-11-21T00:10:48;204.52;;;112.45;;
36415;SDS011;22447;44.530;18.620;2023-11-21T00:13:14;201.75;;;107.55;;
36415;SDS011;22447;44.530;18.620;2023-11-21T00:15:40;226.68;;;114.32;;
36415;SDS011;22447;44.530;18.620;2023-11-21T00:18:06;303.20;;;133.02;;
36415;SDS011;22447;44.530;18.620;2023-11-21T00:20:32;331.63;;;145.85;;
36415;SDS011;22447;44.530;18.620;2023-11-21T00:22:57;338.60;;;152.63;;
36415;SDS011;22447;44.530;18.620;2023-11-21T00:25:24;333.27;;;147.13;;
36415;SDS011;22447;44.530;18.620;2023-11-21T00:27:50;337.70;;;148.38;;
36415;SDS011;22447;44.530;18.620;2023-11-21T00:30:16;294.15;;;136.73;;
36415;SDS011;22447;44.530;18.620;2023-11-21T00:32:42;293.10;;;139.95;;
36415;SDS011;22447;44.530;18.620;2023-11-21T00:35:08;326.95;;;156.32;;
36415;SDS011;22447;44.530;18.620;2023-11-21T00:37:34;351.85;;;167.85;;
36415;SDS011;22447;44.530;18.620;2023-11-21T00:40:00;355.58;;;171.75;;
36415;SDS011;22447;44.530;18.620;2023-11-21T00:42:31;359.45;;;174.75;;
36415;SDS011;22447;44.530;18.620;2023-11-21T00:44:59;330.90;;;165.25;;
36415;SDS011;22447;44.530;18.620;2023-11-21T00:47:25;304.90;;;147.07;;
36415;SDS011;22447;44.530;18.620;2023-11-21T00:49:51;279.55;;;142.30;;
36415;SDS011;22447;44.530;18.620;2023-11-21T00:52:17;279.90;;;141.70;;
36415;SDS011;22447;44.530;18.620;2023-11-21T00:54:43;284.73;;;143.38;;
36415;SDS011;22447;44.530;18.620;2023-11-21T00:57:10;287.02;;;140.45;;
36415;SDS011;22447;44.530;18.620;2023-11-21T00:59:37;279.60;;;141.00;;
36415;SDS011;22447;44.530;18.620;2023-11-21T01:02:03;287.00;;;140.30;;
36415;SDS011;22447;44.530;18.620;2023-11-21T01:04:30;300.55;;;149.98;;
36415;SDS011;22447;44.530;18.620;2023-11-21T01:06:59;312.02;;;154.63;;
36415;SDS011;22447;44.530;18.620;2023-11-21T01:09:25;288.70;;;145.32;;
36415;SDS011;22447;44.530;18.620;2023-11-21T01:11:51;287.35;;;140.90;;
36415;SDS011;22447;44.530;18.620;2023-11-21T01:14:17;266.55;;;136.40;;
36415;SDS011;22447;44.530;18.620;2023-11-21T01:16:43;282.77;;;139.32;;
36415;SDS011;22447;44.530;18.620;2023-11-21T01:19:09;283.13;;;141.60;;
36415;SDS011;22447;44.530;18.620;2023-11-21T01:21:35;264.13;;;134.73;;
36415;SDS011;22447;44.530;18.620;2023-11-21T01:24:00;266.67;;;134.85;;
36415;SDS011;22447;44.530;18.620;2023-11-21T01:26:27;271.15;;;137.35;;
36415;SDS011;22447;44.530;18.620;2023-11-21T01:28:54;271.30;;;136.52;;
36415;SDS011;22447;44.530;18.620;2023-11-21T01:31:20;252.88;;;128.15;;
36415;SDS011;22447;44.530;18.620;2023-11-21T01:33:46;257.58;;;134.65;;
36415;SDS011;22447;44.530;18.620;2023-11-21T01:36:12;230.82;;;119.40;;
36415;SDS011;22447;44.530;18.620;2023-11-21T01:38:37;210.75;;;113.55;;
36415;SDS011;22447;44.530;18.620;2023-11-21T01:41:04;236.15;;;122.03;;
36415;SDS011;22447;44.530;18.620;2023-11-21T01:43:31;233.70;;;118.40;;
36415;SDS011;22447;44.530;18.620;2023-11-21T01:45:57;239.55;;;122.93;;
36415;SDS011;22447;44.530;18.620;2023-11-21T01:48:24;244.50;;;125.88;;
36415;SDS011;22447;44.530;18.620;2023-11-21T01:50:51;250.23;;;129.85;;
36415;SDS011;22447;44.530;18.620;2023-11-21T01:53:17;247.15;;;124.75;;
36415;SDS011;22447;44.530;18.620;2023-11-21T01:55:43;256.23;;;130.32;;
36415;SDS011;22447;44.530;18.620;2023-11-21T01:58:11;247.82;;;126.75;;
36415;SDS011;22447;44.530;18.620;2023-11-21T02:00:41;257.55;;;131.20;;
36415;SDS011;22447;44.530;18.620;2023-11-21T02:03:08;250.82;;;131.27;;
36415;SDS011;22447;44.530;18.620;2023-11-21T02:05:35;221.98;;;116.95;;
36415;SDS011;22447;44.530;18.620;2023-11-21T02:08:01;208.07;;;109.35;;
36415;SDS011;22447;44.530;18.620;2023-11-21T02:10:28;207.80;;;110.32;;
36415;SDS011;22447;44.530;18.620;2023-11-21T02:12:57;213.35;;;112.78;;
36415;SDS011;22447;44.530;18.620;2023-11-21T02:15:23;232.98;;;116.85;;
36415;SDS011;22447;44.530;18.620;2023-11-21T02:17:53;237.15;;;121.65;;
36415;SDS011;22447;44.530;18.620;2023-11-21T02:20:20;231.25;;;118.57;;
36415;SDS011;22447;44.530;18.620;2023-11-21T02:22:53;241.48;;;122.90;;
36415;SDS011;22447;44.530;18.620;2023-11-21T02:25:26;227.27;;;115.53;;
36415;SDS011;22447;44.530;18.620;2023-11-21T02:27:54;207.05;;;109.72;;
36415;SDS011;22447;44.530;18.620;2023-11-21T02:30:25;220.82;;;109.97;;
36415;SDS011;22447;44.530;18.620;2023-11-21T02:32:53;208.57;;;112.13;;
36415;SDS011;22447;44.530;18.620;2023-11-21T02:35:22;230.95;;;115.82;;
36415;SDS011;22447;44.530;18.620;2023-11-21T02:37:48;221.82;;;114.95;;
36415;SDS011;22447;44.530;18.620;2023-11-21T02:40:15;214.30;;;112.20;;
36415;SDS011;22447;44.530;18.620;2023-11-21T02:42:49;243.23;;;124.65;;
36415;SDS011;22447;44.530;18.620;2023-11-21T02:45:16;240.73;;;124.13;;
36415;SDS011;22447;44.530;18.620;2023-11-21T02:47:44;242.05;;;121.82;;
36415;SDS011;22447;44.530;18.620;2023-11-21T02:50:10;230.55;;;118.93;;
36415;SDS011;22447;44.530;18.620;2023-11-21T02:52:36;248.25;;;126.40;;
36415;SDS011;22447;44.530;18.620;2023-11-21T02:55:02;239.65;;;122.65;;
36415;SDS011;22447;44.530;18.620;2023-11-21T02:57:28;246.57;;;121.65;;
36415;SDS011;22447;44.530;18.620;2023-11-21T02:59:55;247.38;;;122.30;;
36415;SDS011;22447;44.530;18.620;2023-11-21T03:02:21;227.45;;;113.53;;
36415;SDS011;22447;44.530;18.620;2023-11-21T03:04:48;213.45;;;106.05;;
36415;SDS011;22447;44.530;18.620;2023-11-21T03:07:14;208.75;;;103.35;;
36415;SDS011;22447;44.530;18.620;2023-11-21T03:09:41;213.70;;;108.43;;
36415;SDS011;22447;44.530;18.620;2023-11-21T03:12:07;201.95;;;105.00;;
36415;SDS011;22447;44.530;18.620;2023-11-21T03:14:34;199.68;;;103.47;;
36415;SDS011;22447;44.530;18.620;2023-11-21T03:17:00;189.60;;;94.80;;
36415;SDS011;22447;44.530;18.620;2023-11-21T03:19:26;163.07;;;88.93;;
36415;SDS011;22447;44.530;18.620;2023-11-21T03:21:52;150.35;;;83.38;;
36415;SDS011;22447;44.530;18.620;2023-11-21T03:24:18;152.60;;;81.82;;
36415;SDS011;22447;44.530;18.620;2023-11-21T03:26:45;150.45;;;83.82;;
36415;SDS011;22447;44.530;18.620;2023-11-21T03:29:12;150.80;;;86.10;;
36415;SDS011;22447;44.530;18.620;2023-11-21T03:31:38;164.45;;;88.78;;
36415;SDS011;22447;44.530;18.620;2023-11-21T03:34:04;160.95;;;88.38;;
36415;SDS011;22447;44.530;18.620;2023-11-21T03:36:30;160.60;;;89.28;;
36415;SDS011;22447;44.530;18.620;2023-11-21T03:38:56;158.00;;;89.35;;
36415;SDS011;22447;44.530;18.620;2023-11-21T03:41:21;172.30;;;93.63;;
36415;SDS011;22447;44.530;18.620;2023-11-21T03:43:48;180.35;;;98.97;;
36415;SDS011;22447;44.530;18.620;2023-11-21T03:46:14;178.23;;;94.03;;
36415;SDS011;22447;44.530;18.620;2023-11-21T03:48:41;177.57;;;94.65;;
36415;SDS011;22447;44.530;18.620;2023-11-21T03:51:07;172.18;;;91.60;;
36415;SDS011;22447;44.530;18.620;2023-11-21T03:53:33;177.80;;;95.72;;
36415;SDS011;22447;44.530;18.620;2023-11-21T03:56:02;185.40;;;99.18;;
36415;SDS011;22447;44.530;18.620;2023-11-21T03:58:29;180.50;;;99.20;;
36415;SDS011;22447;44.530;18.620;2023-11-21T04:00:55;172.15;;;91.30;;
36415;SDS011;22447;44.530;18.620;2023-11-21T04:03:20;167.35;;;87.80;;
36415;SDS011;22447;44.530;18.620;2023-11-21T04:05:46;190.50;;;100.68;;
36415;SDS011;22447;44.530;18.620;2023-11-21T04:08:12;167.50;;;88.80;;
36415;SDS011;22447;44.530;18.620;2023-11-21T04:10:38;171.70;;;92.20;;
36415;SDS011;22447;44.530;18.620;2023-11-21T04:13:05;150.63;;;82.50;;
36415;SDS011;22447;44.530;18.620;2023-11-21T04:15:32;148.88;;;78.03;;
36415;SDS011;22447;44.530;18.620;2023-11-21T04:17:58;146.20;;;79.47;;
36415;SDS011;22447;44.530;18.620;2023-11-21T04:20:24;143.75;;;80.00;;
36415;SDS011;22447;44.530;18.620;2023-11-21T04:22:50;137.65;;;75.28;;
36415;SDS011;22447;44.530;18.620;2023-11-21T04:25:16;154.65;;;86.60;;
36415;SDS011;22447;44.530;18.620;2023-11-21T04:27:42;139.45;;;78.90;;
36415;SDS011;22447;44.530;18.620;2023-11-21T04:30:09;141.95;;;78.03;;
36415;SDS011;22447;44.530;18.620;2023-11-21T04:32:36;131.45;;;76.07;;
36415;SDS011;22447;44.530;18.620;2023-11-21T04:35:02;132.07;;;74.65;;
36415;SDS011;22447;44.530;18.620;2023-11-21T04:37:29;134.93;;;75.55;;
36415;SDS011;22447;44.530;18.620;2023-11-21T04:39:55;137.80;;;76.68;;
36415;SDS011;22447;44.530;18.620;2023-11-21T04:42:21;134.15;;;74.65;;
36415;SDS011;22447;44.530;18.620;2023-11-21T04:44:47;140.25;;;77.97;;
36415;SDS011;22447;44.530;18.620;2023-11-21T04:47:13;126.25;;;70.82;;
36415;SDS011;22447;44.530;18.620;2023-11-21T04:49:41;117.63;;;65.25;;
36415;SDS011;22447;44.530;18.620;2023-11-21T04:52:07;138.38;;;77.22;;
36415;SDS011;22447;44.530;18.620;2023-11-21T04:54:35;119.32;;;64.90;;
36415;SDS011;22447;44.530;18.620;2023-11-21T04:57:01;116.65;;;64.75;;
36415;SDS011;22447;44.530;18.620;2023-11-21T04:59:27;106.03;;;59.10;;
36415;SDS011;22447;44.530;18.620;2023-11-21T05:01:53;117.47;;;66.90;;
36415;SDS011;22447;44.530;18.620;2023-11-21T05:04:19;115.75;;;65.68;;
36415;SDS011;22447;44.530;18.620;2023-11-21T05:06:47;108.30;;;60.45;;
36415;SDS011;22447;44.530;18.620;2023-11-21T05:09:13;115.05;;;65.95;;
36415;SDS011;22447;44.530;18.620;2023-11-21T05:11:41;107.28;;;60.30;;
36415;SDS011;22447;44.530;18.620;2023-11-21T05:14:07;118.85;;;66.07;;
36415;SDS011;22447;44.530;18.620;2023-11-21T05:16:33;127.93;;;70.75;;
36415;SDS011;22447;44.530;18.620;2023-11-21T05:19:00;127.43;;;68.80;;
36415;SDS011;22447;44.530;18.620;2023-11-21T05:21:26;121.10;;;66.20;;
36415;SDS011;22447;44.530;18.620;2023-11-21T05:23:54;94.53;;;55.67;;
36415;SDS011;22447;44.530;18.620;2023-11-21T05:26:20;104.70;;;62.42;;
36415;SDS011;22447;44.530;18.620;2023-11-21T05:28:46;115.65;;;63.88;;
36415;SDS011;22447;44.530;18.620;2023-11-21T05:31:13;109.93;;;62.35;;
36415;SDS011;22447;44.530;18.620;2023-11-21T05:33:39;112.75;;;65.57;;
36415;SDS011;22447;44.530;18.620;2023-11-21T05:36:04;119.93;;;68.38;;
36415;SDS011;22447;44.530;18.620;2023-11-21T05:38:33;109.07;;;65.43;;
36415;SDS011;22447;44.530;18.620;2023-11-21T05:41:00;112.88;;;65.90;;
36415;SDS011;22447;44.530;18.620;2023-11-21T05:43:26;189.43;;;90.53;;
36415;SDS011;22447;44.530;18.620;2023-11-21T05:45:54;193.43;;;97.30;;
36415;SDS011;22447;44.530;18.620;2023-11-21T05:48:20;241.18;;;102.30;;
36415;SDS011;22447;44.530;18.620;2023-11-21T05:50:46;316.77;;;119.93;;
36415;SDS011;22447;44.530;18.620;2023-11-21T05:53:14;564.30;;;191.52;;
36415;SDS011;22447;44.530;18.620;2023-11-21T05:55:41;502.65;;;168.30;;
36415;SDS011;22447;44.530;18.620;2023-11-21T05:58:07;333.40;;;124.32;;
36415;SDS011;22447;44.530;18.620;2023-11-21T06:00:33;157.80;;;78.22;;
36415;SDS011;22447;44.530;18.620;2023-11-21T06:02:59;107.47;;;57.75;;
36415;SDS011;22447;44.530;18.620;2023-11-21T06:05:26;112.45;;;62.17;;
36415;SDS011;22447;44.530;18.620;2023-11-21T06:07:52;105.28;;;57.80;;
36415;SDS011;22447;44.530;18.620;2023-11-21T06:10:20;130.75;;;67.43;;
36415;SDS011;22447;44.530;18.620;2023-11-21T06:12:46;133.80;;;69.90;;
36415;SDS011;22447;44.530;18.620;2023-11-21T06:15:12;124.07;;;69.20;;
36415;SDS011;22447;44.530;18.620;2023-11-21T06:17:39;110.10;;;59.50;;
36415;SDS011;22447;44.530;18.620;2023-11-21T06:20:06;128.93;;;67.95;;
36415;SDS011;22447;44.530;18.620;2023-11-21T06:22:40;127.60;;;68.30;;
36415;SDS011;22447;44.530;18.620;2023-11-21T06:25:09;140.30;;;76.03;;
36415;SDS011;22447;44.530;18.620;2023-11-21T06:27:47;128.65;;;67.40;;
36415;SDS011;22447;44.530;18.620;2023-11-21T06:30:13;122.93;;;66.85;;
36415;SDS011;22447;44.530;18.620;2023-11-21T06:32:40;131.80;;;70.95;;
36415;SDS011;22447;44.530;18.620;2023-11-21T06:35:07;120.57;;;68.85;;
36415;SDS011;22447;44.530;18.620;2023-11-21T06:37:35;102.57;;;60.53;;
36415;SDS011;22447;44.530;18.620;2023-11-21T06:40:01;124.38;;;73.10;;
36415;SDS011;22447;44.530;18.620;2023-11-21T06:42:29;113.80;;;65.35;;
36415;SDS011;22447;44.530;18.620;2023-11-21T06:44:55;112.15;;;66.18;;
36415;SDS011;22447;44.530;18.620;2023-11-21T06:47:22;117.30;;;65.28;;
36415;SDS011;22447;44.530;18.620;2023-11-21T06:49:52;122.97;;;69.35;;
36415;SDS011;22447;44.530;18.620;2023-11-21T06:52:19;135.70;;;73.10;;
36415;SDS011;22447;44.530;18.620;2023-11-21T06:54:45;121.47;;;67.00;;
36415;SDS011;22447;44.530;18.620;2023-11-21T06:57:12;173.27;;;80.28;;
36415;SDS011;22447;44.530;18.620;2023-11-21T06:59:38;245.95;;;98.40;;
36415;SDS011;22447;44.530;18.620;2023-11-21T07:02:04;236.90;;;98.97;;
36415;SDS011;22447;44.530;18.620;2023-11-21T07:04:34;182.82;;;83.97;;
36415;SDS011;22447;44.530;18.620;2023-11-21T07:07:01;111.40;;;65.35;;
36415;SDS011;22447;44.530;18.620;2023-11-21T07:09:28;115.90;;;65.03;;
36415;SDS011;22447;44.530;18.620;2023-11-21T07:11:54;109.50;;;61.53;;
36415;SDS011;22447;44.530;18.620;2023-11-21T07:14:20;123.55;;;68.35;;
36415;SDS011;22447;44.530;18.620;2023-11-21T07:16:47;142.43;;;84.88;;
36415;SDS011;22447;44.530;18.620;2023-11-21T07:19:13;150.18;;;87.60;;
36415;SDS011;22447;44.530;18.620;2023-11-21T07:21:39;142.88;;;92.68;;
36415;SDS011;22447;44.530;18.620;2023-11-21T07:24:06;163.70;;;100.68;;
36415;SDS011;22447;44.530;18.620;2023-11-21T07:26:33;186.90;;;126.35;;
36415;SDS011;22447;44.530;18.620;2023-11-21T07:29:00;298.27;;;179.80;;
36415;SDS011;22447;44.530;18.620;2023-11-21T07:31:27;220.32;;;135.63;;
36415;SDS011;22447;44.530;18.620;2023-11-21T07:33:54;131.27;;;78.28;;
36415;SDS011;22447;44.530;18.620;2023-11-21T07:36:22;138.95;;;77.82;;
36415;SDS011;22447;44.530;18.620;2023-11-21T07:38:48;138.15;;;80.97;;
36415;SDS011;22447;44.530;18.620;2023-11-21T07:41:15;132.15;;;80.57;;
36415;SDS011;22447;44.530;18.620;2023-11-21T07:43:43;156.15;;;92.07;;
36415;SDS011;22447;44.530;18.620;2023-11-21T07:46:09;151.20;;;87.57;;
36415;SDS011;22447;44.530;18.620;2023-11-21T07:48:38;156.18;;;93.50;;
36415;SDS011;22447;44.530;18.620;2023-11-21T07:51:04;145.63;;;87.28;;
36415;SDS011;22447;44.530;18.620;2023-11-21T07:53:30;141.02;;;85.93;;
36415;SDS011;22447;44.530;18.620;2023-11-21T07:55:56;152.95;;;89.55;;
36415;SDS011;22447;44.530;18.620;2023-11-21T07:58:23;150.30;;;90.43;;
36415;SDS011;22447;44.530;18.620;2023-11-21T08:00:49;134.18;;;82.68;;
36415;SDS011;22447;44.530;18.620;2023-11-21T08:03:15;142.50;;;86.72;;
36415;SDS011;22447;44.530;18.620;2023-11-21T08:05:42;163.68;;;91.63;;
36415;SDS011;22447;44.530;18.620;2023-11-21T08:08:08;260.27;;;131.07;;
36415;SDS011;22447;44.530;18.620;2023-11-21T08:10:34;413.48;;;178.52;;
36415;SDS011;22447;44.530;18.620;2023-11-21T08:13:01;498.48;;;198.57;;
36415;SDS011;22447;44.530;18.620;2023-11-21T08:15:27;351.95;;;147.55;;
36415;SDS011;22447;44.530;18.620;2023-11-21T08:17:54;192.45;;;100.88;;
36415;SDS011;22447;44.530;18.620;2023-11-21T08:20:19;130.25;;;76.07;;
36415;SDS011;22447;44.530;18.620;2023-11-21T08:22:47;123.68;;;71.50;;
36415;SDS011;22447;44.530;18.620;2023-11-21T08:25:13;129.05;;;75.45;;
36415;SDS011;22447;44.530;18.620;2023-11-21T08:27:39;137.40;;;83.90;;
36415;SDS011;22447;44.530;18.620;2023-11-21T08:30:05;152.18;;;93.43;;
36415;SDS011;22447;44.530;18.620;2023-11-21T08:32:32;147.32;;;95.00;;
36415;SDS011;22447;44.530;18.620;2023-11-21T08:35:00;138.68;;;84.85;;
36415;SDS011;22447;44.530;18.620;2023-11-21T08:37:26;164.23;;;91.60;;
36415;SDS011;22447;44.530;18.620;2023-11-21T08:39:57;250.60;;;133.43;;
36415;SDS011;22447;44.530;18.620;2023-11-21T08:42:24;228.55;;;120.03;;
36415;SDS011;22447;44.530;18.620;2023-11-21T08:44:50;218.05;;;116.97;;
36415;SDS011;22447;44.530;18.620;2023-11-21T08:47:16;230.23;;;123.05;;
36415;SDS011;22447;44.530;18.620;2023-11-21T08:49:42;219.98;;;125.60;;
36415;SDS011;22447;44.530;18.620;2023-11-21T08:52:08;242.20;;;137.43;;
36415;SDS011;22447;44.530;18.620;2023-11-21T08:54:34;242.25;;;141.13;;
36415;SDS011;22447;44.530;18.620;2023-11-21T08:57:00;200.27;;;120.65;;
36415;SDS011;22447;44.530;18.620;2023-11-21T08:59:26;222.60;;;127.50;;
36415;SDS011;22447;44.530;18.620;2023-11-21T09:01:51;227.88;;;131.40;;
36415;SDS011;22447;44.530;18.620;2023-11-21T09:04:17;215.10;;;131.77;;
36415;SDS011;22447;44.530;18.620;2023-11-21T09:06:43;232.68;;;140.00;;
36415;SDS011;22447;44.530;18.620;2023-11-21T09:09:09;229.75;;;136.77;;
36415;SDS011;22447;44.530;18.620;2023-11-21T09:11:35;231.43;;;136.90;;
36415;SDS011;22447;44.530;18.620;2023-11-21T09:14:02;256.27;;;151.18;;
36415;SDS011;22447;44.530;18.620;2023-11-21T09:16:28;229.68;;;141.25;;
36415;SDS011;22447;44.530;18.620;2023-11-21T09:18:55;231.02;;;134.88;;
36415;SDS011;22447;44.530;18.620;2023-11-21T09:21:20;250.20;;;148.70;;
36415;SDS011;22447;44.530;18.620;2023-11-21T09:23:47;225.70;;;135.32;;
36415;SDS011;22447;44.530;18.620;2023-11-21T09:26:14;221.55;;;132.63;;
36415;SDS011;22447;44.530;18.620;2023-11-21T09:28:41;243.48;;;143.07;;
36415;SDS011;22447;44.530;18.620;2023-11-21T09:31:11;221.18;;;128.18;;
36415;SDS011;22447;44.530;18.620;2023-11-21T09:33:40;239.45;;;139.75;;
36415;SDS011;22447;44.530;18.620;2023-11-21T09:36:06;229.65;;;136.23;;
36415;SDS011;22447;44.530;18.620;2023-11-21T09:38:36;230.50;;;134.73;;
36415;SDS011;22447;44.530;18.620;2023-11-21T09:41:02;206.25;;;120.97;;
36415;SDS011;22447;44.530;18.620;2023-11-21T09:43:29;167.98;;;101.35;;
36415;SDS011;22447;44.530;18.620;2023-11-21T09:45:59;232.95;;;138.23;;
36415;SDS011;22447;44.530;18.620;2023-11-21T09:48:27;250.80;;;141.20;;
36415;SDS011;22447;44.530;18.620;2023-11-21T09:50:55;166.98;;;99.22;;
36415;SDS011;22447;44.530;18.620;2023-11-21T09:53:22;118.22;;;72.75;;
36415;SDS011;22447;44.530;18.620;2023-11-21T09:55:51;111.15;;;70.30;;
36415;SDS011;22447;44.530;18.620;2023-11-21T09:58:18;134.02;;;80.97;;
36415;SDS011;22447;44.530;18.620;2023-11-21T10:00:45;83.53;;;53.17;;
36415;SDS011;22447;44.530;18.620;2023-11-21T10:03:12;83.43;;;51.08;;
36415;SDS011;22447;44.530;18.620;2023-11-21T10:05:39;77.40;;;48.25;;
36415;SDS011;22447;44.530;18.620;2023-11-21T10:08:08;73.53;;;47.38;;
36415;SDS011;22447;44.530;18.620;2023-11-21T10:10:37;78.47;;;47.35;;
36415;SDS011;22447;44.530;18.620;2023-11-21T10:13:10;70.70;;;46.55;;
36415;SDS011;22447;44.530;18.620;2023-11-21T10:15:38;76.70;;;49.65;;
36415;SDS011;22447;44.530;18.620;2023-11-21T10:18:09;83.30;;;52.00;;
36415;SDS011;22447;44.530;18.620;2023-11-21T10:20:36;84.13;;;53.33;;
36415;SDS011;22447;44.530;18.620;2023-11-21T10:23:03;90.22;;;53.53;;
36415;SDS011;22447;44.530;18.620;2023-11-21T10:25:30;113.90;;;65.13;;
36415;SDS011;22447;44.530;18.620;2023-11-21T10:27:59;107.00;;;64.53;;
36415;SDS011;22447;44.530;18.620;2023-11-21T10:30:32;97.32;;;57.25;;
36415;SDS011;22447;44.530;18.620;2023-11-21T10:33:02;119.43;;;61.13;;
36415;SDS011;22447;44.530;18.620;2023-11-21T10:35:48;66.72;;;43.55;;
36415;SDS011;22447;44.530;18.620;2023-11-21T10:38:20;51.55;;;37.03;;
36415;SDS011;22447;44.530;18.620;2023-11-21T10:40:48;61.10;;;39.28;;
36415;SDS011;22447;44.530;18.620;2023-11-21T10:43:15;55.70;;;38.90;;
36415;SDS011;22447;44.530;18.620;2023-11-21T10:45:42;66.03;;;42.33;;
36415;SDS011;22447;44.530;18.620;2023-11-21T10:48:15;63.38;;;40.95;;
36415;SDS011;22447;44.530;18.620;2023-11-21T10:50:41;70.78;;;46.90;;
36415;SDS011;22447;44.530;18.620;2023-11-21T10:53:11;77.28;;;46.78;;
36415;SDS011;22447;44.530;18.620;2023-11-21T10:55:38;182.93;;;81.07;;
36415;SDS011;22447;44.530;18.620;2023-11-21T10:58:04;171.50;;;72.95;;
36415;SDS011;22447;44.530;18.620;2023-11-21T11:00:33;137.57;;;63.33;;
36415;SDS011;22447;44.530;18.620;2023-11-21T11:03:00;150.70;;;69.00;;
36415;SDS011;22447;44.530;18.620;2023-11-21T11:05:28;89.93;;;47.35;;
36415;SDS011;22447;44.530;18.620;2023-11-21T11:07:58;61.08;;;38.03;;
36415;SDS011;22447;44.530;18.620;2023-11-21T11:10:29;71.20;;;41.85;;
36415;SDS011;22447;44.530;18.620;2023-11-21T11:12:55;58.60;;;37.45;;
36415;SDS011;22447;44.530;18.620;2023-11-21T11:15:27;60.70;;;38.50;;
36415;SDS011;22447;44.530;18.620;2023-11-21T11:17:53;47.60;;;32.95;;
36415;SDS011;22447;44.530;18.620;2023-11-21T11:20:34;57.88;;;34.70;;
36415;SDS011;22447;44.530;18.620;2023-11-21T11:28:47;49.92;;;31.40;;
36415;SDS011;22447;44.530;18.620;2023-11-21T11:33:57;43.72;;;29.20;;
36415;SDS011;22447;44.530;18.620;2023-11-21T11:36:47;55.50;;;34.40;;
36415;SDS011;22447;44.530;18.620;2023-11-21T11:39:31;56.22;;;37.20;;
36415;SDS011;22447;44.530;18.620;2023-11-21T11:42:07;62.35;;;40.97;;
36415;SDS011;22447;44.530;18.620;2023-11-21T11:47:15;67.38;;;43.25;;
36415;SDS011;22447;44.530;18.620;2023-11-21T11:52:34;44.35;;;29.35;;
36415;SDS011;22447;44.530;18.620;2023-11-21T11:55:07;54.92;;;33.55;;
36415;SDS011;22447;44.530;18.620;2023-11-21T11:57:36;53.63;;;31.92;;
36415;SDS011;22447;44.530;18.620;2023-11-21T12:00:10;52.85;;;29.67;;
36415;SDS011;22447;44.530;18.620;2023-11-21T12:02:45;78.40;;;35.67;;
36415;SDS011;22447;44.530;18.620;2023-11-21T12:05:19;60.33;;;29.38;;
36415;SDS011;22447;44.530;18.620;2023-11-21T12:07:51;52.67;;;28.08;;
36415;SDS011;22447;44.530;18.620;2023-11-21T12:10:22;79.53;;;36.10;;
36415;SDS011;22447;44.530;18.620;2023-11-21T12:12:56;62.58;;;32.97;;
36415;SDS011;22447;44.530;18.620;2023-11-21T12:15:24;53.80;;;29.75;;
36415;SDS011;22447;44.530;18.620;2023-11-21T12:17:50;52.67;;;31.05;;
36415;SDS011;22447;44.530;18.620;2023-11-21T12:20:21;51.03;;;29.73;;
36415;SDS011;22447;44.530;18.620;2023-11-21T12:22:55;55.70;;;30.60;;
36415;SDS011;22447;44.530;18.620;2023-11-21T12:25:30;51.50;;;28.02;;
36415;SDS011;22447;44.530;18.620;2023-11-21T12:28:01;60.70;;;32.22;;
36415;SDS011;22447;44.530;18.620;2023-11-21T12:30:28;67.55;;;32.13;;
36415;SDS011;22447;44.530;18.620;2023-11-21T12:33:00;70.50;;;32.75;;
36415;SDS011;22447;44.530;18.620;2023-11-21T12:35:27;71.80;;;34.72;;
36415;SDS011;22447;44.530;18.620;2023-11-21T12:37:54;55.55;;;28.98;;
36415;SDS011;22447;44.530;18.620;2023-11-21T12:40:22;49.55;;;26.75;;
36415;SDS011;22447;44.530;18.620;2023-11-21T12:42:49;42.72;;;24.27;;
36415;SDS011;22447;44.530;18.620;2023-11-21T12:45:23;36.85;;;21.30;;
36415;SDS011;22447;44.530;18.620;2023-11-21T12:47:59;42.65;;;22.83;;
36415;SDS011;22447;44.530;18.620;2023-11-21T12:50:31;33.53;;;20.27;;
36415;SDS011;22447;44.530;18.620;2023-11-21T12:53:00;37.80;;;20.35;;
36415;SDS011;22447;44.530;18.620;2023-11-21T12:55:31;41.92;;;22.52;;
36415;SDS011;22447;44.530;18.620;2023-11-21T12:57:57;48.67;;;25.90;;
36415;SDS011;22447;44.530;18.620;2023-11-21T13:00:35;44.35;;;24.63;;
36415;SDS011;22447;44.530;18.620;2023-11-21T13:03:03;41.80;;;21.75;;
36415;SDS011;22447;44.530;18.620;2023-11-21T13:05:34;48.65;;;25.17;;
36415;SDS011;22447;44.530;18.620;2023-11-21T13:08:07;44.90;;;23.73;;
36415;SDS011;22447;44.530;18.620;2023-11-21T13:10:37;56.97;;;27.85;;
36415;SDS011;22447;44.530;18.620;2023-11-21T13:13:10;55.35;;;25.35;;
36415;SDS011;22447;44.530;18.620;2023-11-21T13:15:47;68.05;;;31.80;;
36415;SDS011;22447;44.530;18.620;2023-11-21T13:18:14;64.10;;;31.65;;
36415;SDS011;22447;44.530;18.620;2023-11-21T13:20:41;71.78;;;31.35;;
36415;SDS011;22447;44.530;18.620;2023-11-21T13:23:08;63.72;;;30.17;;
36415;SDS011;22447;44.530;18.620;2023-11-21T13:25:40;46.92;;;25.50;;
36415;SDS011;22447;44.530;18.620;2023-11-21T13:28:11;43.25;;;26.98;;
36415;SDS011;22447;44.530;18.620;2023-11-21T13:30:37;42.17;;;26.90;;
36415;SDS011;22447;44.530;18.620;2023-11-21T13:33:05;43.97;;;26.63;;
36415;SDS011;22447;44.530;18.620;2023-11-21T13:35:33;26.65;;;17.85;;
36415;SDS011;22447;44.530;18.620;2023-11-21T13:38:12;41.77;;;24.40;;
36415;SDS011;22447;44.530;18.620;2023-11-21T13:40:42;42.35;;;26.33;;
36415;SDS011;22447;44.530;18.620;2023-11-21T13:43:18;32.15;;;22.73;;
36415;SDS011;22447;44.530;18.620;2023-11-21T13:45:50;39.95;;;25.02;;
36415;SDS011;22447;44.530;18.620;2023-11-21T13:48:26;47.70;;;27.17;;
36415;SDS011;22447;44.530;18.620;2023-11-21T13:51:07;57.53;;;32.35;;
36415;SDS011;22447;44.530;18.620;2023-11-21T13:56:05;43.30;;;24.48;;
36415;SDS011;22447;44.530;18.620;2023-11-21T13:58:31;39.13;;;25.88;;
36415;SDS011;22447;44.530;18.620;2023-11-21T14:01:16;41.58;;;28.08;;
36415;SDS011;22447;44.530;18.620;2023-11-21T14:03:55;61.10;;;39.60;;
36415;SDS011;22447;44.530;18.620;2023-11-21T14:06:53;59.92;;;37.35;;
36415;SDS011;22447;44.530;18.620;2023-11-21T14:09:21;68.68;;;42.50;;
36415;SDS011;22447;44.530;18.620;2023-11-21T14:11:50;64.75;;;41.00;;
36415;SDS011;22447;44.530;18.620;2023-11-21T14:14:18;49.72;;;32.80;;
36415;SDS011;22447;44.530;18.620;2023-11-21T14:16:44;56.65;;;36.85;;